sensor_id;sensor_type;location;lat;lon;timestamp;temperature;humidity
15241;DHT22;7723;52.170;9.978;2023-12-28T00:02:09;8.50;1.00
15241;DHT22;7723;52.170;9.978;2023-12-28T00:04:36;8.50;1.00
15241;DHT22;7723;52.170;9.978;2023-12-28T00:07:05;8.50;99.90
15241;DHT22;7723;52.170;9.978;2023-12-28T00:09:32;8.50;1.00
15241;DHT22;7723;52.170;9.978;2023-12-28T00:11:59;8.50;1.00
15241;DHT22;7723;52.170;9.978;2023-12-28T00:14:27;8.60;99.90
15241;DHT22;7723;52.170;9.978;2023-12-28T00:16:55;8.70;99.90
15241;DHT22;7723;52.170;9.978;2023-12-28T00:19:22;8.70;99.90
15241;DHT22;7723;52.170;9.978;2023-12-28T00:21:49;8.70;99.90
15241;DHT22;7723;52.170;9.978;2023-12-28T00:24:20;8.70;99.90
15241;DHT22;7723;52.170;9.978;2023-12-28T00:26:47;8.70;99.90
15241;DHT22;7723;52.170;9.978;2023-12-28T00:29:14;8.80;99.90
15241;DHT22;7723;52.170;9.978;2023-12-28T00:31:41;8.80;35.00
15241;DHT22;7723;52.170;9.978;2023-12-28T00:34:08;8.90;99.90
15241;DHT22;7723;52.170;9.978;2023-12-28T00:36:36;8.90;99.90
15241;DHT22;7723;52.170;9.978;2023-12-28T00:39:03;8.90;99.90
15241;DHT22;7723;52.170;9.978;2023-12-28T00:41:32;9.00;99.90
15241;DHT22;7723;52.170;9.978;2023-12-28T00:43:59;9.10;1.00
15241;DHT22;7723;52.170;9.978;2023-12-28T00:46:26;9.10;1.00
15241;DHT22;7723;52.170;9.978;2023-12-28T00:48:53;9.30;99.90
15241;DHT22;7723;52.170;9.978;2023-12-28T00:51:20;9.30;1.00
15241;DHT22;7723;52.170;9.978;2023-12-28T00:53:48;9.40;1.00
15241;DHT22;7723;52.170;9.978;2023-12-28T00:56:15;9.40;1.00
15241;DHT22;7723;52.170;9.978;2023-12-28T00:58:43;9.40;96.90
15241;DHT22;7723;52.170;9.978;2023-12-28T01:01:11;9.40;99.90
15241;DHT22;7723;52.170;9.978;2023-12-28T01:03:38;9.30;1.00
15241;DHT22;7723;52.170;9.978;2023-12-28T01:06:05;9.30;99.90
15241;DHT22;7723;52.170;9.978;2023-12-28T01:08:32;9.30;40.00
15241;DHT22;7723;52.170;9.978;2023-12-28T01:11:01;9.30;99.90
15241;DHT22;7723;52.170;9.978;2023-12-28T01:13:28;9.20;1.00
15241;DHT22;7723;52.170;9.978;2023-12-28T01:15:58;9.20;99.90
15241;DHT22;7723;52.170;9.978;2023-12-28T01:18:25;9.10;99.90
15241;DHT22;7723;52.170;9.978;2023-12-28T01:20:52;9.10;1.00
15241;DHT22;7723;52.170;9.978;2023-12-28T01:23:19;9.10;1.00
15241;DHT22;7723;52.170;9.978;2023-12-28T01:25:46;9.10;99.90
15241;DHT22;7723;52.170;9.978;2023-12-28T01:28:13;9.10;1.00
15241;DHT22;7723;52.170;9.978;2023-12-28T01:30:41;9.10;99.90
15241;DHT22;7723;52.170;9.978;2023-12-28T01:33:11;9.00;99.90
15241;DHT22;7723;52.170;9.978;2023-12-28T01:35:38;8.90;99.90
15241;DHT22;7723;52.170;9.978;2023-12-28T01:38:05;8.90;99.90
15241;DHT22;7723;52.170;9.978;2023-12-28T01:40:32;8.80;99.90
15241;DHT22;7723;52.170;9.978;2023-12-28T01:43:00;8.90;1.00
15241;DHT22;7723;52.170;9.978;2023-12-28T01:45:27;8.80;1.00
15241;DHT22;7723;52.170;9.978;2023-12-28T01:47:56;8.80;12.00
15241;DHT22;7723;52.170;9.978;2023-12-28T01:50:26;8.80;99.90
15241;DHT22;7723;52.170;9.978;2023-12-28T01:52:55;8.70;99.90
15241;DHT22;7723;52.170;9.978;2023-12-28T01:55:23;8.70;99.90
15241;DHT22;7723;52.170;9.978;2023-12-28T01:57:51;8.70;99.90
15241;DHT22;7723;52.170;9.978;2023-12-28T02:00:19;8.70;1.00
15241;DHT22;7723;52.170;9.978;2023-12-28T02:02:48;8.60;1.00
15241;DHT22;7723;52.170;9.978;2023-12-28T02:05:16;8.60;1.00
15241;DHT22;7723;52.170;9.978;2023-12-28T02:07:45;8.60;1.00
15241;DHT22;7723;52.170;9.978;2023-12-28T02:10:12;8.60;1.00
15241;DHT22;7723;52.170;9.978;2023-12-28T02:12:39;8.60;1.00
15241;DHT22;7723;52.170;9.978;2023-12-28T02:15:07;8.60;1.00
15241;DHT22;7723;52.170;9.978;2023-12-28T02:17:39;8.60;1.00
15241;DHT22;7723;52.170;9.978;2023-12-28T02:20:10;8.60;1.00
15241;DHT22;7723;52.170;9.978;2023-12-28T02:22:37;8.60;56.80
15241;DHT22;7723;52.170;9.978;2023-12-28T02:25:08;8.60;96.80
15241;DHT22;7723;52.170;9.978;2023-12-28T02:27:38;8.60;99.90
15241;DHT22;7723;52.170;9.978;2023-12-28T02:30:08;8.50;99.90
15241;DHT22;7723;52.170;9.978;2023-12-28T02:32:48;8.50;99.90
15241;DHT22;7723;52.170;9.978;2023-12-28T02:35:20;8.50;99.90
15241;DHT22;7723;52.170;9.978;2023-12-28T02:37:52;8.60;99.90
15241;DHT22;7723;52.170;9.978;2023-12-28T02:40:22;8.60;99.90
15241;DHT22;7723;52.170;9.978;2023-12-28T02:42:50;8.60;99.90
15241;DHT22;7723;52.170;9.978;2023-12-28T02:45:18;8.50;99.90
15241;DHT22;7723;52.170;9.978;2023-12-28T02:47:45;8.50;99.90
15241;DHT22;7723;52.170;9.978;2023-12-28T02:50:13;8.50;99.90
15241;DHT22;7723;52.170;9.978;2023-12-28T02:52:40;8.50;99.90
15241;DHT22;7723;52.170;9.978;2023-12-28T02:55:07;8.60;99.90
15241;DHT22;7723;52.170;9.978;2023-12-28T02:57:37;8.60;99.90
15241;DHT22;7723;52.170;9.978;2023-12-28T03:00:06;8.60;99.90
15241;DHT22;7723;52.170;9.978;2023-12-28T03:02:35;8.60;99.90
15241;DHT22;7723;52.170;9.978;2023-12-28T03:05:04;8.60;99.90
15241;DHT22;7723;52.170;9.978;2023-12-28T03:07:31;8.60;99.90
15241;DHT22;7723;52.170;9.978;2023-12-28T03:09:59;8.50;99.90
15241;DHT22;7723;52.170;9.978;2023-12-28T03:12:26;8.50;99.90
15241;DHT22;7723;52.170;9.978;2023-12-28T03:14:55;8.50;99.90
15241;DHT22;7723;52.170;9.978;2023-12-28T03:17:22;8.50;99.90
15241;DHT22;7723;52.170;9.978;2023-12-28T03:19:49;8.50;99.90
15241;DHT22;7723;52.170;9.978;2023-12-28T03:22:17;8.50;99.90
15241;DHT22;7723;52.170;9.978;2023-12-28T03:24:44;8.50;99.90
15241;DHT22;7723;52.170;9.978;2023-12-28T03:27:11;8.50;99.90
15241;DHT22;7723;52.170;9.978;2023-12-28T03:29:41;8.50;99.90
15241;DHT22;7723;52.170;9.978;2023-12-28T03:32:09;8.50;99.90
15241;DHT22;7723;52.170;9.978;2023-12-28T03:34:37;8.60;99.90
15241;DHT22;7723;52.170;9.978;2023-12-28T03:37:04;8.50;99.90
15241;DHT22;7723;52.170;9.978;2023-12-28T03:39:31;8.50;99.90
15241;DHT22;7723;52.170;9.978;2023-12-28T03:41:59;8.50;99.90
15241;DHT22;7723;52.170;9.978;2023-12-28T03:44:26;8.50;99.90
15241;DHT22;7723;52.170;9.978;2023-12-28T03:46:53;8.50;99.90
15241;DHT22;7723;52.170;9.978;2023-12-28T03:49:23;8.50;99.90
15241;DHT22;7723;52.170;9.978;2023-12-28T03:51:51;8.60;99.90
15241;DHT22;7723;52.170;9.978;2023-12-28T03:54:19;8.60;99.90
15241;DHT22;7723;52.170;9.978;2023-12-28T03:56:47;8.70;99.90
15241;DHT22;7723;52.170;9.978;2023-12-28T03:59:14;8.80;99.90
15241;DHT22;7723;52.170;9.978;2023-12-28T04:01:42;8.80;99.90
15241;DHT22;7723;52.170;9.978;2023-12-28T04:04:09;8.80;99.90
15241;DHT22;7723;52.170;9.978;2023-12-28T04:06:38;8.90;99.90
15241;DHT22;7723;52.170;9.978;2023-12-28T04:09:07;8.90;99.90
15241;DHT22;7723;52.170;9.978;2023-12-28T04:11:34;8.90;99.90
15241;DHT22;7723;52.170;9.978;2023-12-28T04:14:01;8.80;99.90
15241;DHT22;7723;52.170;9.978;2023-12-28T04:16:28;8.80;99.90
15241;DHT22;7723;52.170;9.978;2023-12-28T04:18:57;8.80;99.90
15241;DHT22;7723;52.170;9.978;2023-12-28T04:21:24;8.80;99.90
15241;DHT22;7723;52.170;9.978;2023-12-28T04:23:52;8.80;99.90
15241;DHT22;7723;52.170;9.978;2023-12-28T04:26:20;8.90;99.90
15241;DHT22;7723;52.170;9.978;2023-12-28T04:28:47;8.90;99.90
15241;DHT22;7723;52.170;9.978;2023-12-28T04:31:14;8.80;99.90
15241;DHT22;7723;52.170;9.978;2023-12-28T04:33:41;8.80;99.90
15241;DHT22;7723;52.170;9.978;2023-12-28T04:36:08;8.80;99.90
15241;DHT22;7723;52.170;9.978;2023-12-28T04:38:36;8.80;99.90
15241;DHT22;7723;52.170;9.978;2023-12-28T04:41:05;8.90;99.90
15241;DHT22;7723;52.170;9.978;2023-12-28T04:43:33;8.80;99.90
15241;DHT22;7723;52.170;9.978;2023-12-28T04:46:02;8.80;99.90
15241;DHT22;7723;52.170;9.978;2023-12-28T04:48:30;8.80;99.90
15241;DHT22;7723;52.170;9.978;2023-12-28T04:50:58;8.80;99.90
15241;DHT22;7723;52.170;9.978;2023-12-28T04:53:25;8.70;99.90
15241;DHT22;7723;52.170;9.978;2023-12-28T04:55:52;8.70;99.90
15241;DHT22;7723;52.170;9.978;2023-12-28T04:58:23;8.70;99.90
15241;DHT22;7723;52.170;9.978;2023-12-28T05:00:50;8.70;99.90
15241;DHT22;7723;52.170;9.978;2023-12-28T05:03:17;8.70;99.90
15241;DHT22;7723;52.170;9.978;2023-12-28T05:05:45;8.80;99.90
15241;DHT22;7723;52.170;9.978;2023-12-28T05:08:12;8.80;99.90
15241;DHT22;7723;52.170;9.978;2023-12-28T05:10:39;8.90;99.90
15241;DHT22;7723;52.170;9.978;2023-12-28T05:13:06;8.80;99.90
15241;DHT22;7723;52.170;9.978;2023-12-28T05:15:35;8.80;99.90
15241;DHT22;7723;52.170;9.978;2023-12-28T05:18:02;8.80;99.90
15241;DHT22;7723;52.170;9.978;2023-12-28T05:20:29;8.80;99.90
15241;DHT22;7723;52.170;9.978;2023-12-28T05:22:56;8.80;99.90
15241;DHT22;7723;52.170;9.978;2023-12-28T05:25:24;8.80;99.90
15241;DHT22;7723;52.170;9.978;2023-12-28T05:27:51;8.80;99.90
15241;DHT22;7723;52.170;9.978;2023-12-28T05:30:18;8.80;99.90
15241;DHT22;7723;52.170;9.978;2023-12-28T05:32:47;8.80;99.90
15241;DHT22;7723;52.170;9.978;2023-12-28T05:35:14;8.80;99.90
15241;DHT22;7723;52.170;9.978;2023-12-28T05:37:41;8.70;99.90
15241;DHT22;7723;52.170;9.978;2023-12-28T05:40:09;8.70;99.90
15241;DHT22;7723;52.170;9.978;2023-12-28T05:42:36;8.70;99.90
15241;DHT22;7723;52.170;9.978;2023-12-28T05:45:04;8.70;99.90
15241;DHT22;7723;52.170;9.978;2023-12-28T05:47:32;8.70;99.90
15241;DHT22;7723;52.170;9.978;2023-12-28T05:50:00;8.70;99.90
15241;DHT22;7723;52.170;9.978;2023-12-28T05:52:29;8.80;99.90
15241;DHT22;7723;52.170;9.978;2023-12-28T05:54:56;8.80;99.90
15241;DHT22;7723;52.170;9.978;2023-12-28T05:57:23;8.80;99.90
15241;DHT22;7723;52.170;9.978;2023-12-28T05:59:52;8.80;99.90
15241;DHT22;7723;52.170;9.978;2023-12-28T06:02:19;8.80;99.90
15241;DHT22;7723;52.170;9.978;2023-12-28T06:04:47;8.80;99.90
15241;DHT22;7723;52.170;9.978;2023-12-28T06:07:15;8.80;99.90
15241;DHT22;7723;52.170;9.978;2023-12-28T06:09:43;8.90;99.90
15241;DHT22;7723;52.170;9.978;2023-12-28T06:12:11;8.90;99.90
15241;DHT22;7723;52.170;9.978;2023-12-28T06:14:39;9.00;99.90
15241;DHT22;7723;52.170;9.978;2023-12-28T06:17:06;9.00;99.90
15241;DHT22;7723;52.170;9.978;2023-12-28T06:19:33;9.00;99.90
15241;DHT22;7723;52.170;9.978;2023-12-28T06:22:00;9.10;99.90
15241;DHT22;7723;52.170;9.978;2023-12-28T06:24:29;9.20;99.90
15241;DHT22;7723;52.170;9.978;2023-12-28T06:26:56;9.20;99.90
15241;DHT22;7723;52.170;9.978;2023-12-28T06:29:23;9.20;99.90
15241;DHT22;7723;52.170;9.978;2023-12-28T06:31:51;9.30;99.90
15241;DHT22;7723;52.170;9.978;2023-12-28T06:34:18;9.40;99.90
15241;DHT22;7723;52.170;9.978;2023-12-28T06:36:45;9.30;99.90
15241;DHT22;7723;52.170;9.978;2023-12-28T06:39:12;9.30;99.90
15241;DHT22;7723;52.170;9.978;2023-12-28T06:41:41;9.40;99.90
15241;DHT22;7723;52.170;9.978;2023-12-28T06:44:11;9.40;99.90
15241;DHT22;7723;52.170;9.978;2023-12-28T06:46:39;9.40;99.90
15241;DHT22;7723;52.170;9.978;2023-12-28T06:49:06;9.40;99.90
15241;DHT22;7723;52.170;9.978;2023-12-28T06:51:33;9.30;99.90
15241;DHT22;7723;52.170;9.978;2023-12-28T06:54:00;9.30;99.90
15241;DHT22;7723;52.170;9.978;2023-12-28T06:56:28;9.30;99.90
15241;DHT22;7723;52.170;9.978;2023-12-28T06:58:56;9.30;99.90
15241;DHT22;7723;52.170;9.978;2023-12-28T07:01:24;9.30;99.90
15241;DHT22;7723;52.170;9.978;2023-12-28T07:03:51;9.30;99.90
15241;DHT22;7723;52.170;9.978;2023-12-28T07:06:18;9.30;99.90
15241;DHT22;7723;52.170;9.978;2023-12-28T07:08:45;9.30;99.90
15241;DHT22;7723;52.170;9.978;2023-12-28T07:11:12;9.20;99.90
15241;DHT22;7723;52.170;9.978;2023-12-28T07:13:40;9.30;99.90
15241;DHT22;7723;52.170;9.978;2023-12-28T07:16:08;9.20;93.40
15241;DHT22;7723;52.170;9.978;2023-12-28T07:18:36;9.30;43.00
15241;DHT22;7723;52.170;9.978;2023-12-28T07:21:03;9.30;28.20
15241;DHT22;7723;52.170;9.978;2023-12-28T07:23:32;9.30;17.50
15241;DHT22;7723;52.170;9.978;2023-12-28T07:25:59;9.30;17.80
15241;DHT22;7723;52.170;9.978;2023-12-28T07:28:26;9.30;5.90
15241;DHT22;7723;52.170;9.978;2023-12-28T07:30:53;9.20;24.60
15241;DHT22;7723;52.170;9.978;2023-12-28T07:33:22;9.20;5.30
15241;DHT22;7723;52.170;9.978;2023-12-28T07:35:49;9.20;1.00
15241;DHT22;7723;52.170;9.978;2023-12-28T07:38:16;9.10;4.60
15241;DHT22;7723;52.170;9.978;2023-12-28T07:40:43;9.10;3.00
15241;DHT22;7723;52.170;9.978;2023-12-28T07:43:10;9.10;9.80
15241;DHT22;7723;52.170;9.978;2023-12-28T07:45:37;9.10;1.00
15241;DHT22;7723;52.170;9.978;2023-12-28T07:48:06;9.10;1.00
15241;DHT22;7723;52.170;9.978;2023-12-28T07:50:34;9.10;1.00
15241;DHT22;7723;52.170;9.978;2023-12-28T07:53:03;9.10;1.00
15241;DHT22;7723;52.170;9.978;2023-12-28T07:55:30;9.10;1.00
15241;DHT22;7723;52.170;9.978;2023-12-28T07:57:57;9.10;1.00
15241;DHT22;7723;52.170;9.978;2023-12-28T08:00:25;9.10;1.00
15241;DHT22;7723;52.170;9.978;2023-12-28T08:02:52;9.10;1.00
15241;DHT22;7723;52.170;9.978;2023-12-28T08:05:19;9.10;1.00
15241;DHT22;7723;52.170;9.978;2023-12-28T08:07:47;9.10;1.00
15241;DHT22;7723;52.170;9.978;2023-12-28T08:10:15;9.20;1.00
15241;DHT22;7723;52.170;9.978;2023-12-28T08:12:42;9.20;1.00
15241;DHT22;7723;52.170;9.978;2023-12-28T08:15:09;9.20;1.00
15241;DHT22;7723;52.170;9.978;2023-12-28T08:17:37;9.20;1.00
15241;DHT22;7723;52.170;9.978;2023-12-28T08:20:05;9.20;1.00
15241;DHT22;7723;52.170;9.978;2023-12-28T08:22:32;9.20;1.00
15241;DHT22;7723;52.170;9.978;2023-12-28T08:25:01;9.30;1.00
15241;DHT22;7723;52.170;9.978;2023-12-28T08:27:28;9.40;1.00
15241;DHT22;7723;52.170;9.978;2023-12-28T08:29:55;9.30;1.00
15241;DHT22;7723;52.170;9.978;2023-12-28T08:32:22;9.30;1.00
15241;DHT22;7723;52.170;9.978;2023-12-28T08:34:50;9.30;1.00
15241;DHT22;7723;52.170;9.978;2023-12-28T08:37:17;9.30;1.00
15241;DHT22;7723;52.170;9.978;2023-12-28T08:39:44;9.30;1.00
15241;DHT22;7723;52.170;9.978;2023-12-28T08:42:12;9.20;1.00
15241;DHT22;7723;52.170;9.978;2023-12-28T08:44:40;9.20;1.00
15241;DHT22;7723;52.170;9.978;2023-12-28T08:47:07;9.30;1.00
15241;DHT22;7723;52.170;9.978;2023-12-28T08:49:34;9.30;1.00
15241;DHT22;7723;52.170;9.978;2023-12-28T08:52:01;9.40;99.90
15241;DHT22;7723;52.170;9.978;2023-12-28T08:54:29;9.40;99.90
15241;DHT22;7723;52.170;9.978;2023-12-28T08:56:57;9.50;99.90
15241;DHT22;7723;52.170;9.978;2023-12-28T08:59:26;9.50;99.50
15241;DHT22;7723;52.170;9.978;2023-12-28T09:01:53;9.60;20.00
15241;DHT22;7723;52.170;9.978;2023-12-28T09:04:21;9.60;1.00
15241;DHT22;7723;52.170;9.978;2023-12-28T09:06:48;9.70;1.00
15241;DHT22;7723;52.170;9.978;2023-12-28T09:09:15;9.60;1.00
15241;DHT22;7723;52.170;9.978;2023-12-28T09:11:42;9.60;1.00
15241;DHT22;7723;52.170;9.978;2023-12-28T09:14:09;9.70;1.00
15241;DHT22;7723;52.170;9.978;2023-12-28T09:16:38;9.70;99.90
15241;DHT22;7723;52.170;9.978;2023-12-28T09:19:06;9.60;1.00
15241;DHT22;7723;52.170;9.978;2023-12-28T09:21:34;9.70;1.00
15241;DHT22;7723;52.170;9.978;2023-12-28T09:24:01;9.80;99.90
15241;DHT22;7723;52.170;9.978;2023-12-28T09:26:28;9.80;99.90
15241;DHT22;7723;52.170;9.978;2023-12-28T09:28:55;10.00;1.00
15241;DHT22;7723;52.170;9.978;2023-12-28T09:31:22;10.20;99.90
15241;DHT22;7723;52.170;9.978;2023-12-28T09:33:51;10.40;1.00
15241;DHT22;7723;52.170;9.978;2023-12-28T09:36:18;10.40;99.90
15241;DHT22;7723;52.170;9.978;2023-12-28T09:38:45;10.50;1.00
15241;DHT22;7723;52.170;9.978;2023-12-28T09:41:14;10.50;1.00
15241;DHT22;7723;52.170;9.978;2023-12-28T09:43:45;10.40;1.00
15241;DHT22;7723;52.170;9.978;2023-12-28T09:46:16;10.40;1.00
15241;DHT22;7723;52.170;9.978;2023-12-28T09:48:44;10.30;1.00
15241;DHT22;7723;52.170;9.978;2023-12-28T09:51:13;10.30;1.00
15241;DHT22;7723;52.170;9.978;2023-12-28T09:53:40;10.20;1.00
15241;DHT22;7723;52.170;9.978;2023-12-28T09:56:09;10.10;1.00
15241;DHT22;7723;52.170;9.978;2023-12-28T09:58:37;10.10;99.90
15241;DHT22;7723;52.170;9.978;2023-12-28T10:01:06;10.10;99.90
15241;DHT22;7723;52.170;9.978;2023-12-28T10:03:34;10.10;99.90
15241;DHT22;7723;52.170;9.978;2023-12-28T10:06:01;10.10;21.30
15241;DHT22;7723;52.170;9.978;2023-12-28T10:08:30;10.00;99.90
15241;DHT22;7723;52.170;9.978;2023-12-28T10:10:57;10.00;1.00
15241;DHT22;7723;52.170;9.978;2023-12-28T10:13:25;10.00;1.00
15241;DHT22;7723;52.170;9.978;2023-12-28T10:15:52;9.90;1.00
15241;DHT22;7723;52.170;9.978;2023-12-28T10:18:19;9.90;1.00
15241;DHT22;7723;52.170;9.978;2023-12-28T10:20:50;9.90;1.00
15241;DHT22;7723;52.170;9.978;2023-12-28T10:23:18;9.90;1.00
15241;DHT22;7723;52.170;9.978;2023-12-28T10:25:47;9.90;1.00
15241;DHT22;7723;52.170;9.978;2023-12-28T10:28:16;9.90;1.00
15241;DHT22;7723;52.170;9.978;2023-12-28T10:30:45;9.90;1.00
15241;DHT22;7723;52.170;9.978;2023-12-28T10:33:13;10.00;1.00
15241;DHT22;7723;52.170;9.978;2023-12-28T10:35:42;10.00;99.90
15241;DHT22;7723;52.170;9.978;2023-12-28T10:38:14;10.00;99.90
15241;DHT22;7723;52.170;9.978;2023-12-28T10:40:43;10.00;99.90
15241;DHT22;7723;52.170;9.978;2023-12-28T10:43:16;10.10;1.00
15241;DHT22;7723;52.170;9.978;2023-12-28T10:45:47;10.10;1.00
15241;DHT22;7723;52.170;9.978;2023-12-28T10:48:21;10.10;1.00
15241;DHT22;7723;52.170;9.978;2023-12-28T10:50:52;10.20;48.20
15241;DHT22;7723;52.170;9.978;2023-12-28T10:53:30;10.20;1.00
15241;DHT22;7723;52.170;9.978;2023-12-28T10:56:10;10.30;1.00
15241;DHT22;7723;52.170;9.978;2023-12-28T10:58:48;10.40;99.90
15241;DHT22;7723;52.170;9.978;2023-12-28T11:01:21;10.40;44.20
15241;DHT22;7723;52.170;9.978;2023-12-28T11:03:56;10.30;74.80
15241;DHT22;7723;52.170;9.978;2023-12-28T11:06:26;10.30;39.20
15241;DHT22;7723;52.170;9.978;2023-12-28T11:08:55;10.30;1.00
15241;DHT22;7723;52.170;9.978;2023-12-28T11:11:24;10.40;1.00
15241;DHT22;7723;52.170;9.978;2023-12-28T11:13:55;10.40;1.00
15241;DHT22;7723;52.170;9.978;2023-12-28T11:16:24;10.40;1.00
15241;DHT22;7723;52.170;9.978;2023-12-28T11:18:52;10.50;1.00
15241;DHT22;7723;52.170;9.978;2023-12-28T11:21:20;10.50;1.00
15241;DHT22;7723;52.170;9.978;2023-12-28T11:23:49;10.50;1.00
15241;DHT22;7723;52.170;9.978;2023-12-28T11:26:16;10.50;1.00
15241;DHT22;7723;52.170;9.978;2023-12-28T11:28:44;10.50;1.00
15241;DHT22;7723;52.170;9.978;2023-12-28T11:31:13;10.50;1.00
15241;DHT22;7723;52.170;9.978;2023-12-28T11:33:45;10.60;1.00
15241;DHT22;7723;52.170;9.978;2023-12-28T11:36:21;10.60;99.90
15241;DHT22;7723;52.170;9.978;2023-12-28T11:38:53;10.60;99.90
15241;DHT22;7723;52.170;9.978;2023-12-28T11:41:21;10.60;99.90
15241;DHT22;7723;52.170;9.978;2023-12-28T11:43:52;10.60;1.00
15241;DHT22;7723;52.170;9.978;2023-12-28T11:46:22;10.70;1.00
15241;DHT22;7723;52.170;9.978;2023-12-28T11:48:50;10.80;1.00
15241;DHT22;7723;52.170;9.978;2023-12-28T11:51:17;10.90;99.90
15241;DHT22;7723;52.170;9.978;2023-12-28T11:53:44;11.00;99.90
15241;DHT22;7723;52.170;9.978;2023-12-28T11:56:15;11.00;96.40
15241;DHT22;7723;52.170;9.978;2023-12-28T11:58:43;11.10;1.00
15241;DHT22;7723;52.170;9.978;2023-12-28T12:01:12;11.00;58.60
15241;DHT22;7723;52.170;9.978;2023-12-28T12:03:41;11.00;1.00
15241;DHT22;7723;52.170;9.978;2023-12-28T12:06:08;11.00;1.00
15241;DHT22;7723;52.170;9.978;2023-12-28T12:08:36;11.00;1.00
15241;DHT22;7723;52.170;9.978;2023-12-28T12:11:05;11.00;1.00
15241;DHT22;7723;52.170;9.978;2023-12-28T12:13:33;11.00;99.90
15241;DHT22;7723;52.170;9.978;2023-12-28T12:16:02;11.00;99.90
15241;DHT22;7723;52.170;9.978;2023-12-28T12:18:31;11.00;99.90
15241;DHT22;7723;52.170;9.978;2023-12-28T12:21:01;11.00;99.90
15241;DHT22;7723;52.170;9.978;2023-12-28T12:23:28;11.10;99.90
15241;DHT22;7723;52.170;9.978;2023-12-28T12:25:55;11.10;1.00
15241;DHT22;7723;52.170;9.978;2023-12-28T12:28:22;11.10;1.00
15241;DHT22;7723;52.170;9.978;2023-12-28T12:30:51;11.10;1.00
15241;DHT22;7723;52.170;9.978;2023-12-28T12:33:20;11.10;1.00
15241;DHT22;7723;52.170;9.978;2023-12-28T12:35:47;11.20;1.00
15241;DHT22;7723;52.170;9.978;2023-12-28T12:38:16;11.10;1.00
15241;DHT22;7723;52.170;9.978;2023-12-28T12:40:44;11.10;1.00
15241;DHT22;7723;52.170;9.978;2023-12-28T12:43:11;11.10;1.00
15241;DHT22;7723;52.170;9.978;2023-12-28T12:45:39;11.10;1.00
15241;DHT22;7723;52.170;9.978;2023-12-28T12:48:07;11.00;1.00
15241;DHT22;7723;52.170;9.978;2023-12-28T12:50:34;11.10;1.00
15241;DHT22;7723;52.170;9.978;2023-12-28T12:53:01;11.00;1.00
15241;DHT22;7723;52.170;9.978;2023-12-28T12:55:32;11.00;1.00
15241;DHT22;7723;52.170;9.978;2023-12-28T12:58:00;11.00;1.00
15241;DHT22;7723;52.170;9.978;2023-12-28T13:00:27;10.90;99.90
15241;DHT22;7723;52.170;9.978;2023-12-28T13:02:55;11.00;1.00
15241;DHT22;7723;52.170;9.978;2023-12-28T13:05:24;11.00;1.00
15241;DHT22;7723;52.170;9.978;2023-12-28T13:07:52;11.00;1.00
15241;DHT22;7723;52.170;9.978;2023-12-28T13:10:20;11.00;1.00
15241;DHT22;7723;52.170;9.978;2023-12-28T13:12:48;11.00;1.00
15241;DHT22;7723;52.170;9.978;2023-12-28T13:15:16;11.00;1.00
15241;DHT22;7723;52.170;9.978;2023-12-28T13:17:43;11.00;1.00
15241;DHT22;7723;52.170;9.978;2023-12-28T13:20:11;11.00;1.00
15241;DHT22;7723;52.170;9.978;2023-12-28T13:22:38;11.00;1.00
15241;DHT22;7723;52.170;9.978;2023-12-28T13:25:05;11.00;1.00
15241;DHT22;7723;52.170;9.978;2023-12-28T13:27:33;11.00;1.00
15241;DHT22;7723;52.170;9.978;2023-12-28T13:30:01;11.00;1.00
15241;DHT22;7723;52.170;9.978;2023-12-28T13:32:29;11.00;1.00
15241;DHT22;7723;52.170;9.978;2023-12-28T13:34:56;10.90;1.00
15241;DHT22;7723;52.170;9.978;2023-12-28T13:37:23;11.00;1.00
15241;DHT22;7723;52.170;9.978;2023-12-28T13:39:50;11.10;99.90
15241;DHT22;7723;52.170;9.978;2023-12-28T13:42:17;11.10;99.90
15241;DHT22;7723;52.170;9.978;2023-12-28T13:44:44;11.10;99.90
15241;DHT22;7723;52.170;9.978;2023-12-28T13:47:13;11.10;99.90
15241;DHT22;7723;52.170;9.978;2023-12-28T13:49:40;11.10;99.90
15241;DHT22;7723;52.170;9.978;2023-12-28T13:52:09;11.10;99.90
15241;DHT22;7723;52.170;9.978;2023-12-28T13:54:36;11.10;99.90
15241;DHT22;7723;52.170;9.978;2023-12-28T13:57:04;11.00;99.90
15241;DHT22;7723;52.170;9.978;2023-12-28T13:59:31;11.10;99.90
15241;DHT22;7723;52.170;9.978;2023-12-28T14:01:58;11.10;1.00
15241;DHT22;7723;52.170;9.978;2023-12-28T14:04:27;11.10;1.00
15241;DHT22;7723;52.170;9.978;2023-12-28T14:06:54;11.10;57.60
15241;DHT22;7723;52.170;9.978;2023-12-28T14:09:22;11.00;58.60
15241;DHT22;7723;52.170;9.978;2023-12-28T14:11:49;11.00;4.70
15241;DHT22;7723;52.170;9.978;2023-12-28T14:14:16;11.00;99.90
15241;DHT22;7723;52.170;9.978;2023-12-28T14:16:43;11.00;99.90
15241;DHT22;7723;52.170;9.978;2023-12-28T14:19:10;11.00;99.90
15241;DHT22;7723;52.170;9.978;2023-12-28T14:21:40;10.90;99.90
15241;DHT22;7723;52.170;9.978;2023-12-28T14:24:08;10.90;99.90
15241;DHT22;7723;52.170;9.978;2023-12-28T14:26:40;10.90;99.90
15241;DHT22;7723;52.170;9.978;2023-12-28T14:29:09;10.80;99.90
15241;DHT22;7723;52.170;9.978;2023-12-28T14:31:36;10.80;99.90
15241;DHT22;7723;52.170;9.978;2023-12-28T14:34:04;10.80;99.90
15241;DHT22;7723;52.170;9.978;2023-12-28T14:36:33;10.80;99.90
15241;DHT22;7723;52.170;9.978;2023-12-28T14:39:04;10.80;99.90
15241;DHT22;7723;52.170;9.978;2023-12-28T14:41:32;10.80;99.90
15241;DHT22;7723;52.170;9.978;2023-12-28T14:44:00;10.80;67.30
15241;DHT22;7723;52.170;9.978;2023-12-28T14:46:27;10.80;98.50
15241;DHT22;7723;52.170;9.978;2023-12-28T14:48:55;10.80;99.90
15241;DHT22;7723;52.170;9.978;2023-12-28T14:51:22;10.70;99.90
15241;DHT22;7723;52.170;9.978;2023-12-28T14:53:50;10.70;99.90
15241;DHT22;7723;52.170;9.978;2023-12-28T14:56:18;10.70;99.90
15241;DHT22;7723;52.170;9.978;2023-12-28T14:58:46;10.70;99.90
15241;DHT22;7723;52.170;9.978;2023-12-28T15:01:14;10.70;99.90
15241;DHT22;7723;52.170;9.978;2023-12-28T15:03:41;10.70;99.90
15241;DHT22;7723;52.170;9.978;2023-12-28T15:06:08;10.60;1.00
15241;DHT22;7723;52.170;9.978;2023-12-28T15:08:36;10.70;99.90
15241;DHT22;7723;52.170;9.978;2023-12-28T15:11:03;10.60;99.90
15241;DHT22;7723;52.170;9.978;2023-12-28T15:13:35;10.60;99.90
15241;DHT22;7723;52.170;9.978;2023-12-28T15:16:02;10.60;99.90
15241;DHT22;7723;52.170;9.978;2023-12-28T15:18:30;10.50;99.90
15241;DHT22;7723;52.170;9.978;2023-12-28T15:20:58;10.50;99.90
15241;DHT22;7723;52.170;9.978;2023-12-28T15:23:26;10.50;99.90
15241;DHT22;7723;52.170;9.978;2023-12-28T15:25:54;10.50;99.90
15241;DHT22;7723;52.170;9.978;2023-12-28T15:28:21;10.50;99.90
15241;DHT22;7723;52.170;9.978;2023-12-28T15:30:50;10.50;99.90
15241;DHT22;7723;52.170;9.978;2023-12-28T15:33:17;10.50;99.90
15241;DHT22;7723;52.170;9.978;2023-12-28T15:35:44;10.60;99.90
15241;DHT22;7723;52.170;9.978;2023-12-28T15:38:10;10.60;99.90
15241;DHT22;7723;52.170;9.978;2023-12-28T15:40:40;10.60;99.90
15241;DHT22;7723;52.170;9.978;2023-12-28T15:43:07;10.50;1.00
15241;DHT22;7723;52.170;9.978;2023-12-28T15:45:35;10.40;1.00
15241;DHT22;7723;52.170;9.978;2023-12-28T15:48:04;10.40;1.00
15241;DHT22;7723;52.170;9.978;2023-12-28T15:50:32;10.40;1.00
15241;DHT22;7723;52.170;9.978;2023-12-28T15:52:59;10.40;1.00
15241;DHT22;7723;52.170;9.978;2023-12-28T15:55:27;10.50;99.90
15241;DHT22;7723;52.170;9.978;2023-12-28T15:57:54;10.50;1.00
15241;DHT22;7723;52.170;9.978;2023-12-28T16:00:21;10.50;1.00
15241;DHT22;7723;52.170;9.978;2023-12-28T16:02:48;10.50;1.00
15241;DHT22;7723;52.170;9.978;2023-12-28T16:05:16;10.50;1.00
15241;DHT22;7723;52.170;9.978;2023-12-28T16:07:44;10.50;99.90